createdAt,value
2018-09-08T00:00:16.383Z,4.97
2018-09-08T00:02:44.919Z,5.93
2018-09-08T00:05:13.484Z,6.87
2018-09-08T00:07:42.118Z,5.27
2018-09-08T00:10:11.491Z,7.97
2018-09-08T00:12:40.111Z,4.77
2018-09-08T00:15:13.966Z,7.20
2018-09-08T00:17:47.709Z,6.87
2018-09-08T00:20:21.456Z,8.47
2018-09-08T00:22:55.388Z,7.00
2018-09-08T00:25:29.342Z,8.07
2018-09-08T00:28:07.804Z,5.53
2018-09-08T00:30:36.393Z,5.57
2018-09-08T00:33:04.921Z,6.87
2018-09-08T00:35:33.584Z,7.47
2018-09-08T00:38:02.053Z,6.00
2018-09-08T00:40:30.648Z,6.27
2018-09-08T00:42:59.137Z,5.63
2018-09-08T00:45:27.633Z,5.97
2018-09-08T00:47:56.175Z,6.10
2018-09-08T00:50:24.641Z,6.97
2018-09-08T00:52:53.241Z,4.97
2018-09-08T00:55:21.752Z,6.03
2018-09-08T00:57:50.284Z,10.60
2018-09-08T01:00:18.858Z,6.60
2018-09-08T01:02:47.359Z,7.97
2018-09-08T01:05:15.962Z,8.33
2018-09-08T01:07:44.557Z,5.37
2018-09-08T01:10:13.084Z,9.50
2018-09-08T01:12:41.707Z,9.17
2018-09-08T01:15:10.273Z,7.93
2018-09-08T01:17:38.748Z,6.87
2018-09-08T01:20:07.486Z,10.60
2018-09-08T01:22:36.001Z,7.23
2018-09-08T01:25:04.526Z,10.60
2018-09-08T01:27:33.043Z,5.73
2018-09-08T01:30:01.699Z,6.47
2018-09-08T01:32:30.957Z,8.23
2018-09-08T01:34:59.533Z,7.03
2018-09-08T01:37:28.144Z,6.03
2018-09-08T01:39:56.657Z,9.93
2018-09-08T01:42:25.200Z,8.40
2018-09-08T01:44:53.707Z,5.53
2018-09-08T01:47:22.244Z,6.30
2018-09-08T01:49:50.709Z,6.27
2018-09-08T01:52:19.225Z,6.47
2018-09-08T01:54:47.777Z,7.47
2018-09-08T01:57:16.355Z,6.57
2018-09-08T01:59:44.969Z,7.20
2018-09-08T02:02:13.492Z,8.73
2018-09-08T02:04:42.166Z,7.67
2018-09-08T02:07:10.646Z,8.10
2018-09-08T02:09:39.158Z,8.17
2018-09-08T02:12:07.671Z,10.03
2018-09-08T02:14:36.209Z,7.67
2018-09-08T02:17:04.693Z,6.37
2018-09-08T02:19:33.219Z,7.70
2018-09-08T02:22:01.766Z,9.53
2018-09-08T02:24:30.722Z,9.00
2018-09-08T02:26:59.335Z,9.77
2018-09-08T02:29:27.844Z,13.10
2018-09-08T02:31:56.429Z,7.97
2018-09-08T02:34:25.134Z,8.80
2018-09-08T02:36:53.622Z,10.97
2018-09-08T02:39:22.157Z,7.50
2018-09-08T02:41:50.745Z,8.27
2018-09-08T02:44:19.273Z,6.43
2018-09-08T02:46:48.197Z,7.03
2018-09-08T02:49:17.317Z,12.37
2018-09-08T02:51:44.591Z,7.90
2018-09-08T02:54:11.954Z,7.67
2018-09-08T02:56:39.266Z,7.30
2018-09-08T02:59:06.530Z,6.90
2018-09-08T03:01:34.158Z,6.53
2018-09-08T03:04:01.427Z,12.03
2018-09-08T03:06:28.711Z,7.00
2018-09-08T03:08:56.013Z,8.83
2018-09-08T03:11:23.278Z,10.60
2018-09-08T03:13:50.593Z,10.57
2018-09-08T03:16:17.881Z,9.83
2018-09-08T03:18:45.156Z,6.57
2018-09-08T03:21:12.445Z,10.90
2018-09-08T03:23:40.024Z,8.77
2018-09-08T03:26:07.281Z,10.30
2018-09-08T03:28:34.545Z,6.87
2018-09-08T03:31:01.864Z,6.63
2018-09-08T03:33:29.136Z,7.60
2018-09-08T03:35:56.707Z,8.63
2018-09-08T03:38:23.971Z,8.37
2018-09-08T03:40:51.253Z,10.70
2018-09-08T03:43:18.573Z,7.43
2018-09-08T03:45:45.855Z,9.37
2018-09-08T03:48:13.146Z,10.17
2018-09-08T03:50:40.439Z,9.20
2018-09-08T03:53:07.725Z,8.77
2018-09-08T03:55:35.038Z,14.47
2018-09-08T03:58:02.314Z,12.50
2018-09-08T04:00:29.611Z,11.60
2018-09-08T04:02:58.137Z,14.10
2018-09-08T04:05:26.655Z,8.80
2018-09-08T04:07:55.419Z,14.73
2018-09-08T04:10:24.263Z,8.70
2018-09-08T04:12:53.546Z,10.87
2018-09-08T04:15:22.216Z,11.67
2018-09-08T04:17:50.879Z,11.93
2018-09-08T04:20:19.379Z,11.03
2018-09-08T04:22:47.907Z,11.67
2018-09-08T04:25:16.861Z,9.20
2018-09-08T04:27:45.351Z,11.37
2018-09-08T04:30:13.877Z,11.67
2018-09-08T04:32:42.390Z,10.13
2018-09-08T04:35:10.875Z,11.27
2018-09-08T04:37:39.345Z,10.83
2018-09-08T04:40:07.863Z,10.27
2018-09-08T04:42:36.341Z,11.07
2018-09-08T04:45:04.872Z,11.40
2018-09-08T04:47:33.375Z,11.10
2018-09-08T04:50:01.932Z,14.43
2018-09-08T04:52:30.457Z,13.00
2018-09-08T04:54:58.950Z,13.83
2018-09-08T04:57:27.485Z,11.40
2018-09-08T04:59:55.988Z,10.60
2018-09-08T05:02:25.137Z,18.13
2018-09-08T05:04:53.655Z,11.57
2018-09-08T05:07:22.141Z,13.53
2018-09-08T05:09:50.726Z,11.57
2018-09-08T05:12:19.231Z,12.13
2018-09-08T05:14:47.793Z,10.63
2018-09-08T05:17:16.407Z,12.77
2018-09-08T05:19:45.079Z,13.63
2018-09-08T05:22:13.565Z,11.77
2018-09-08T05:24:42.209Z,11.93
2018-09-08T05:27:10.911Z,11.13
2018-09-08T05:29:39.467Z,15.07
2018-09-08T05:32:08.172Z,14.47
2018-09-08T05:34:36.768Z,12.63
2018-09-08T05:37:05.381Z,12.00
2018-09-08T05:39:34.078Z,12.00
2018-09-08T05:42:02.645Z,13.33
2018-09-08T05:44:31.184Z,11.70
2018-09-08T05:46:59.708Z,14.20
2018-09-08T05:49:28.218Z,14.40
2018-09-08T05:51:56.810Z,11.27
2018-09-08T05:54:25.336Z,15.67
2018-09-08T05:56:53.908Z,17.30
2018-09-08T05:59:22.393Z,14.27
2018-09-08T06:01:50.968Z,17.47
2018-09-08T06:04:19.501Z,12.83
2018-09-08T06:06:48.247Z,17.17
2018-09-08T06:09:16.856Z,16.73
2018-09-08T06:11:45.344Z,11.03
2018-09-08T06:14:13.854Z,15.77
2018-09-08T06:16:42.344Z,15.80
2018-09-08T06:19:10.901Z,12.57
2018-09-08T06:21:39.529Z,12.70
2018-09-08T06:24:08.085Z,12.53
2018-09-08T06:26:36.621Z,12.63
2018-09-08T06:29:05.130Z,12.17
2018-09-08T06:31:33.772Z,14.77
2018-09-08T06:34:02.358Z,13.00
2018-09-08T06:36:30.903Z,12.23
2018-09-08T06:38:59.511Z,18.10
2018-09-08T06:41:28.074Z,15.53
2018-09-08T06:43:57.061Z,15.27
2018-09-08T06:46:25.559Z,13.67
2018-09-08T06:48:54.124Z,13.93
2018-09-08T06:51:22.711Z,15.37
2018-09-08T06:53:51.180Z,11.80
2018-09-08T06:56:19.699Z,19.07
2018-09-08T06:58:48.214Z,10.23
2018-09-08T07:01:16.920Z,11.87
2018-09-08T07:03:45.518Z,10.90
2018-09-08T07:06:14.036Z,10.20
2018-09-08T07:08:42.624Z,11.57
2018-09-08T07:11:11.293Z,14.30
2018-09-08T07:13:39.819Z,9.77
2018-09-08T07:16:08.979Z,10.20
2018-09-08T07:18:38.312Z,11.03
2018-09-08T07:21:06.815Z,10.17
2018-09-08T07:23:35.423Z,9.87
2018-09-08T07:26:04.248Z,9.00
2018-09-08T07:28:33.460Z,11.60
2018-09-08T07:31:02.190Z,9.87
2018-09-08T07:33:31.116Z,11.07
2018-09-08T07:35:59.629Z,12.07
2018-09-08T07:38:28.240Z,10.90
2018-09-08T07:40:56.733Z,8.33
2018-09-08T07:43:25.249Z,8.80
2018-09-08T07:45:53.838Z,10.50
2018-09-08T07:48:22.448Z,11.10
2018-09-08T07:50:51.065Z,9.00
2018-09-08T07:53:19.645Z,9.53
2018-09-08T07:55:48.138Z,9.97
2018-09-08T07:58:16.628Z,9.17
2018-09-08T08:00:45.175Z,10.53
2018-09-08T08:03:13.828Z,10.90
2018-09-08T08:05:42.406Z,11.17
2018-09-08T08:08:10.944Z,10.13
2018-09-08T08:10:39.516Z,10.90
2018-09-08T08:13:08.067Z,8.43
2018-09-08T08:15:36.844Z,11.90
2018-09-08T08:18:05.445Z,8.50
2018-09-08T08:20:34.063Z,8.27
2018-09-08T08:23:02.614Z,11.23
2018-09-08T08:25:31.182Z,9.03
2018-09-08T08:27:59.754Z,10.23
2018-09-08T08:30:28.330Z,10.20
2018-09-08T08:32:56.803Z,11.07
2018-09-08T08:35:25.370Z,9.27
2018-09-08T08:37:53.924Z,8.13
2018-09-08T08:40:22.531Z,10.60
2018-09-08T08:42:51.040Z,10.63
2018-09-08T08:45:19.731Z,8.73
2018-09-08T08:47:48.234Z,9.27
2018-09-08T08:50:28.088Z,11.43
2018-09-08T08:53:07.866Z,11.90
2018-09-08T08:55:36.388Z,6.23
2018-09-08T08:58:04.885Z,9.70
2018-09-08T09:00:33.489Z,9.73
2018-09-08T09:03:02.008Z,8.07
2018-09-08T09:05:30.632Z,9.13
2018-09-08T09:07:59.156Z,8.27
2018-09-08T09:10:27.881Z,9.20
2018-09-08T09:12:56.458Z,9.03
2018-09-08T09:15:25.306Z,7.53
2018-09-08T09:17:53.603Z,8.20
2018-09-08T09:20:33.318Z,7.70
2018-09-08T09:23:18.611Z,10.63
2018-09-08T09:25:46.784Z,6.53
2018-09-08T09:28:15.299Z,9.30
2018-09-08T09:30:43.817Z,7.57
2018-09-08T09:33:12.334Z,6.73
2018-09-08T09:35:40.868Z,7.07
2018-09-08T09:38:09.520Z,10.20
2018-09-08T09:40:38.046Z,11.03
2018-09-08T09:43:06.905Z,7.17
2018-09-08T09:45:35.642Z,7.53
2018-09-08T09:48:04.173Z,11.53
2018-09-08T09:50:32.799Z,8.40
2018-09-08T09:53:01.319Z,7.07
2018-09-08T09:55:29.800Z,8.20
2018-09-08T09:57:58.363Z,7.10
2018-09-08T10:00:32.141Z,7.40
2018-09-08T10:03:05.773Z,8.40
2018-09-08T10:05:34.751Z,9.20
2018-09-08T10:08:03.656Z,9.27
2018-09-08T10:10:32.202Z,5.73
2018-09-08T10:13:00.785Z,8.40
2018-09-08T10:15:29.307Z,9.57
2018-09-08T10:17:57.800Z,8.63
2018-09-08T10:20:26.297Z,8.47
2018-09-08T10:22:54.903Z,7.50
2018-09-08T10:25:23.409Z,7.83
2018-09-08T10:27:51.964Z,9.73
2018-09-08T10:30:20.725Z,9.83
2018-09-08T10:32:49.230Z,8.20
2018-09-08T10:35:17.828Z,7.93
2018-09-08T10:37:46.527Z,7.13
2018-09-08T10:40:16.738Z,7.53
2018-09-08T10:42:45.261Z,8.13
2018-09-08T10:45:13.763Z,6.73
2018-09-08T10:47:42.445Z,8.70
2018-09-08T10:50:11.909Z,8.70
2018-09-08T10:52:48.820Z,8.27
2018-09-08T10:55:17.350Z,8.07
2018-09-08T10:57:45.856Z,9.43
2018-09-08T11:00:15.883Z,6.87
2018-09-08T11:02:44.663Z,7.00
2018-09-08T11:05:12.969Z,8.57
2018-09-08T11:07:41.533Z,7.47
2018-09-08T11:10:10.073Z,10.43
2018-09-08T11:12:38.640Z,8.43
2018-09-08T11:15:08.392Z,10.77
2018-09-08T11:17:36.898Z,8.50
2018-09-08T11:20:06.564Z,8.50
2018-09-08T11:22:35.068Z,7.60
2018-09-08T11:25:03.634Z,7.77
2018-09-08T11:27:32.214Z,8.03
2018-09-08T11:30:01.020Z,7.20
2018-09-08T11:32:29.885Z,7.13
2018-09-08T11:34:57.641Z,8.47
2018-09-08T11:37:26.176Z,7.73
2018-09-08T11:39:54.666Z,7.13
2018-09-08T11:42:23.499Z,11.33
2018-09-08T11:44:52.169Z,8.40
2018-09-08T11:47:20.660Z,8.67
2018-09-08T11:49:49.241Z,8.83
2018-09-08T11:52:17.879Z,8.27
2018-09-08T11:54:46.377Z,10.13
2018-09-08T11:57:14.977Z,8.70
2018-09-08T11:59:43.557Z,8.00
2018-09-08T12:02:12.139Z,7.70
2018-09-08T12:04:40.591Z,6.23
2018-09-08T12:07:09.088Z,7.80
2018-09-08T12:09:37.650Z,8.10
2018-09-08T12:12:06.416Z,4.87
2018-09-08T12:14:34.974Z,4.60
2018-09-08T12:17:03.746Z,7.10
2018-09-08T12:19:32.294Z,5.70
2018-09-08T12:22:00.856Z,5.60
2018-09-08T12:24:29.663Z,9.63
2018-09-08T12:26:58.143Z,7.47
2018-09-08T12:29:26.624Z,4.50
2018-09-08T12:31:55.195Z,6.90
2018-09-08T12:34:23.737Z,5.80
2018-09-08T12:36:52.548Z,8.17
2018-09-08T12:39:21.117Z,7.30
2018-09-08T12:41:49.601Z,5.33
2018-09-08T12:44:18.135Z,6.40
2018-09-08T12:46:46.632Z,5.07
2018-09-08T12:49:15.127Z,7.13
2018-09-08T12:51:43.628Z,5.70
2018-09-08T12:54:12.161Z,4.97
2018-09-08T12:56:40.684Z,6.23
2018-09-08T12:59:09.234Z,5.83
2018-09-08T13:01:37.710Z,6.57
2018-09-08T13:04:06.321Z,7.67
2018-09-08T13:06:34.818Z,7.20
2018-09-08T13:09:03.671Z,7.50
2018-09-08T13:11:32.223Z,6.37
2018-09-08T13:14:00.810Z,5.87
2018-09-08T13:16:29.298Z,4.33
2018-09-08T13:18:57.828Z,8.03
2018-09-08T13:21:26.342Z,5.40
2018-09-08T13:23:54.908Z,6.27
2018-09-08T13:26:23.523Z,4.63
2018-09-08T13:28:52.075Z,8.63
2018-09-08T13:31:20.618Z,4.93
2018-09-08T13:33:49.236Z,5.00
2018-09-08T13:36:17.790Z,5.90
2018-09-08T13:38:46.345Z,7.07
2018-09-08T13:41:14.961Z,5.27
2018-09-08T13:43:43.657Z,7.10
2018-09-08T13:46:12.207Z,5.53
2018-09-08T13:48:40.843Z,5.10
2018-09-08T13:51:09.685Z,5.43
2018-09-08T13:53:38.400Z,4.17
2018-09-08T13:56:07.212Z,5.73
2018-09-08T13:58:35.742Z,3.77
2018-09-08T14:01:04.413Z,6.83
2018-09-08T14:03:32.893Z,7.67
2018-09-08T14:06:01.419Z,5.53
2018-09-08T14:08:29.941Z,6.87
2018-09-08T14:10:58.497Z,5.53
2018-09-08T14:13:27.459Z,9.63
2018-09-08T14:15:55.969Z,7.20
2018-09-08T14:18:24.497Z,6.37
2018-09-08T14:20:52.999Z,5.13
2018-09-08T14:23:21.530Z,4.40
2018-09-08T14:25:50.118Z,4.73
2018-09-08T14:28:18.655Z,7.23
2018-09-08T14:30:47.142Z,6.50
2018-09-08T14:33:15.640Z,5.67
2018-09-08T14:35:44.161Z,7.20
2018-09-08T14:38:12.775Z,7.70
2018-09-08T14:40:41.618Z,15.97
2018-09-08T14:43:10.155Z,8.27
2018-09-08T14:45:38.702Z,6.33
2018-09-08T14:48:07.239Z,6.20
2018-09-08T14:50:35.744Z,9.10
2018-09-08T14:53:04.393Z,9.47
2018-09-08T14:55:33.026Z,8.10
2018-09-08T14:58:01.668Z,6.03
2018-09-08T15:00:30.377Z,5.23
2018-09-08T15:02:58.992Z,7.03
2018-09-08T15:05:27.481Z,9.60
2018-09-08T15:07:56.050Z,9.07
2018-09-08T15:10:24.905Z,5.23
2018-09-08T15:12:53.488Z,8.50
2018-09-08T15:15:22.088Z,5.97
2018-09-08T15:17:50.624Z,11.10
2018-09-08T15:20:19.175Z,7.63
2018-09-08T15:22:47.659Z,7.30
2018-09-08T15:25:16.206Z,5.07
2018-09-08T15:27:44.732Z,7.27
2018-09-08T15:30:13.237Z,9.57
2018-09-08T15:32:41.884Z,5.73
2018-09-08T15:35:10.417Z,10.67
2018-09-08T15:37:38.961Z,4.70
2018-09-08T15:40:07.613Z,6.80
2018-09-08T15:42:36.136Z,4.93
2018-09-08T15:45:04.801Z,5.77
2018-09-08T15:47:33.316Z,6.33
2018-09-08T15:50:01.803Z,8.07
2018-09-08T15:52:30.492Z,7.37
2018-09-08T15:54:59.062Z,7.77
2018-09-08T15:57:27.820Z,8.40
2018-09-08T15:59:56.350Z,5.40
2018-09-08T16:02:25.048Z,6.90
2018-09-08T16:04:53.592Z,8.70
2018-09-08T16:07:22.305Z,6.83
2018-09-08T16:09:51.208Z,8.30
2018-09-08T16:12:19.706Z,8.63
2018-09-08T16:14:48.384Z,8.77
2018-09-08T16:17:16.972Z,6.73
2018-09-08T16:19:45.556Z,8.73
2018-09-08T16:22:14.212Z,7.57
2018-09-08T16:24:42.837Z,8.57
2018-09-08T16:27:11.408Z,7.77
2018-09-08T16:29:40.284Z,7.13
2018-09-08T16:32:08.862Z,6.50
2018-09-08T16:34:37.357Z,7.83
2018-09-08T16:37:05.939Z,8.43
2018-09-08T16:39:34.489Z,5.27
2018-09-08T16:42:03.269Z,8.20
2018-09-08T16:44:31.792Z,5.27
2018-09-08T16:47:00.426Z,7.40
2018-09-08T16:49:28.976Z,5.47
2018-09-08T16:51:57.887Z,7.27
2018-09-08T16:54:26.620Z,6.87
2018-09-08T16:56:55.217Z,6.07
2018-09-08T16:59:23.704Z,4.93
2018-09-08T17:01:52.233Z,7.57
2018-09-08T17:04:20.767Z,7.50
2018-09-08T17:06:49.508Z,6.03
2018-09-08T17:09:18.011Z,7.50
2018-09-08T17:11:46.525Z,7.37
2018-09-08T17:14:15.238Z,6.17
2018-09-08T17:16:43.773Z,10.30
2018-09-08T17:19:12.466Z,6.07
2018-09-08T17:21:40.968Z,6.60
2018-09-08T17:24:09.589Z,5.50
2018-09-08T17:26:38.291Z,8.17
2018-09-08T17:29:06.855Z,8.03
2018-09-08T17:31:35.459Z,4.60
2018-09-08T17:34:04.082Z,4.80
2018-09-08T17:36:32.689Z,7.70
2018-09-08T17:39:01.420Z,6.63
2018-09-08T17:41:30.004Z,4.03
2018-09-08T17:43:58.578Z,6.27
2018-09-08T17:46:27.142Z,5.27
2018-09-08T17:48:55.711Z,4.73
2018-09-08T17:51:24.454Z,5.63
2018-09-08T17:53:53.069Z,7.00
2018-09-08T17:56:21.747Z,7.43
2018-09-08T17:58:50.514Z,6.13
2018-09-08T18:01:20.056Z,5.93
2018-09-08T18:03:49.687Z,4.53
2018-09-08T18:06:18.353Z,5.77
2018-09-08T18:08:46.910Z,5.23
2018-09-08T18:11:15.497Z,7.57
2018-09-08T18:13:44.080Z,7.97
2018-09-08T18:16:12.701Z,5.77
2018-09-08T18:18:41.396Z,8.97
2018-09-08T18:21:10.050Z,6.60
2018-09-08T18:23:39.458Z,6.13
2018-09-08T18:26:08.042Z,5.83
2018-09-08T18:28:36.560Z,5.80
2018-09-08T18:31:05.429Z,6.27
2018-09-08T18:33:33.958Z,6.37
2018-09-08T18:36:02.792Z,8.23
2018-09-08T18:38:31.634Z,6.67
2018-09-08T18:41:00.150Z,10.53
2018-09-08T18:43:28.745Z,8.73
2018-09-08T18:45:57.711Z,7.77
2018-09-08T18:48:26.345Z,8.40
2018-09-08T18:50:54.860Z,6.97
2018-09-08T18:53:23.650Z,9.47
2018-09-08T18:55:52.214Z,10.33
2018-09-08T18:58:21.007Z,8.10
2018-09-08T19:00:49.654Z,7.30
2018-09-08T19:03:18.289Z,7.67
2018-09-08T19:05:46.855Z,6.53
2018-09-08T19:08:15.421Z,6.40
2018-09-08T19:10:44.063Z,8.43
2018-09-08T19:13:12.582Z,7.37
2018-09-08T19:15:41.101Z,8.07
2018-09-08T19:18:09.681Z,7.47
2018-09-08T19:20:40.554Z,6.30
2018-09-08T19:23:09.154Z,7.27
2018-09-08T19:25:38.001Z,7.07
2018-09-08T19:28:07.100Z,6.53
2018-09-08T19:30:35.647Z,8.37
2018-09-08T19:33:04.240Z,6.90
2018-09-08T19:35:36.679Z,7.40
2018-09-08T19:38:05.215Z,5.93
2018-09-08T19:40:39.102Z,6.73
2018-09-08T19:43:07.731Z,8.07
2018-09-08T19:45:36.275Z,9.80
2018-09-08T19:48:06.670Z,7.13
2018-09-08T19:50:35.534Z,8.93
2018-09-08T19:53:09.128Z,8.73
2018-09-08T19:55:37.711Z,7.17
2018-09-08T19:58:11.512Z,7.37
2018-09-08T20:00:40.074Z,6.60
2018-09-08T20:03:08.708Z,6.37
2018-09-08T20:05:37.341Z,7.03
2018-09-08T20:08:06.125Z,6.60
2018-09-08T20:10:34.646Z,10.03
2018-09-08T20:13:03.216Z,6.20
2018-09-08T20:15:31.754Z,7.30
2018-09-08T20:18:00.375Z,7.57
2018-09-08T20:20:29.196Z,7.87
2018-09-08T20:22:57.777Z,8.47
2018-09-08T20:25:26.325Z,10.10
2018-09-08T20:27:54.902Z,8.60
2018-09-08T20:30:23.456Z,6.70
2018-09-08T20:32:52.081Z,8.53
2018-09-08T20:35:20.638Z,7.03
2018-09-08T20:37:49.175Z,7.43
2018-09-08T20:40:17.724Z,7.10
2018-09-08T20:42:46.221Z,8.67
2018-09-08T20:45:14.750Z,6.90
2018-09-08T20:47:43.420Z,9.37
2018-09-08T20:50:11.917Z,7.63
2018-09-08T20:52:40.838Z,7.37
2018-09-08T20:55:09.356Z,8.40
2018-09-08T20:57:37.946Z,9.27
2018-09-08T21:00:06.620Z,8.07
2018-09-08T21:02:35.094Z,7.63
2018-09-08T21:05:03.698Z,10.47
2018-09-08T21:07:32.279Z,8.87
2018-09-08T21:10:00.902Z,8.97
2018-09-08T21:12:29.439Z,7.33
2018-09-08T21:14:57.997Z,9.17
2018-09-08T21:17:26.480Z,9.47
2018-09-08T21:19:55.224Z,9.10
2018-09-08T21:22:23.738Z,11.47
2018-09-08T21:24:52.353Z,7.87
2018-09-08T21:27:21.272Z,7.70
2018-09-08T21:29:49.829Z,9.30
2018-09-08T21:32:18.364Z,9.63
2018-09-08T21:34:46.914Z,10.20
2018-09-08T21:37:15.477Z,8.97
2018-09-08T21:39:44.458Z,7.57
2018-09-08T21:42:13.015Z,10.53
2018-09-08T21:44:41.528Z,8.70
2018-09-08T21:47:10.092Z,8.20
2018-09-08T21:49:38.644Z,8.80
2018-09-08T21:52:07.271Z,9.10
2018-09-08T21:54:35.854Z,7.10
2018-09-08T21:57:04.870Z,8.60
2018-09-08T21:59:33.441Z,7.23
2018-09-08T22:02:02.036Z,7.63
2018-09-08T22:04:30.665Z,7.90
2018-09-08T22:06:59.346Z,8.90
2018-09-08T22:09:27.889Z,8.20
2018-09-08T22:11:56.427Z,7.30
2018-09-08T22:14:25.191Z,10.03
2018-09-08T22:16:53.725Z,8.20
2018-09-08T22:19:22.244Z,8.20
2018-09-08T22:21:50.834Z,8.83
2018-09-08T22:24:19.454Z,8.50
2018-09-08T22:26:47.993Z,7.53
2018-09-08T22:29:16.544Z,9.90
2018-09-08T22:31:45.050Z,8.57
2018-09-08T22:34:13.569Z,10.77
2018-09-08T22:36:42.051Z,10.53
2018-09-08T22:39:10.743Z,11.50
2018-09-08T22:41:39.832Z,9.13
2018-09-08T22:44:08.451Z,10.97
2018-09-08T22:46:36.988Z,10.70
2018-09-08T22:49:06.139Z,10.43
2018-09-08T22:51:34.717Z,8.97
2018-09-08T22:54:03.561Z,10.60
2018-09-08T22:56:32.809Z,9.97
2018-09-08T22:59:01.523Z,11.50
2018-09-08T23:01:30.090Z,11.97
2018-09-08T23:03:58.623Z,14.00
2018-09-08T23:06:27.416Z,10.93
2018-09-08T23:08:55.959Z,13.50
2018-09-08T23:11:24.468Z,12.90
2018-09-08T23:13:52.962Z,11.33
2018-09-08T23:16:21.468Z,12.30
2018-09-08T23:18:49.974Z,13.33
2018-09-08T23:21:18.501Z,12.43
2018-09-08T23:23:47.122Z,13.57
2018-09-08T23:26:15.677Z,12.73
2018-09-08T23:28:44.245Z,14.43
2018-09-08T23:31:12.761Z,14.53
2018-09-08T23:33:41.329Z,13.23
2018-09-08T23:36:09.901Z,14.70
2018-09-08T23:38:38.685Z,14.37
2018-09-08T23:41:07.191Z,16.23
2018-09-08T23:43:36.001Z,13.53
2018-09-08T23:46:04.555Z,13.27
2018-09-08T23:48:33.158Z,12.73
2018-09-08T23:51:02.116Z,13.33
2018-09-08T23:53:30.966Z,12.60
2018-09-08T23:55:59.630Z,14.57
2018-09-08T23:58:28.155Z,14.20
